Página principal
METAR-TAF:

METAR-TAF

Aeroportos :

Sal, Cabo Verde

Aeroporto Internacional Amílcar Cabral

latitude: 16-44N, longitude: 022-57W, altura: 54 m

Observação actual do tempo

O boletim foi feito há 16 minutos, às 07:00 UTC
Vento 11 kt de nordeste
Temperatura 19°C
Humidade 73%
Pressão 1014 hPa
Visibilidade 10 km ou mais
Nuvens fragmentadasa uma altura de 1400 ft

METAR: GVAC 180700Z 05011KT 9999 BKN014 19/14 Q1014 NOSIG

Hora: 06:16 (07:16 UTC)

Previsão

O boletim foi feito há 2 horas e 16 minutos, às 05:00 UTC
Previsão válida de 18 às 06 UTC a 19 às 12 UTC
Vento 16 kt de nordeste
Visibilidade 10 km ou mais
Nuvens dispersasa uma altura de 1400 ft
Temporariamente
de 18 às 10 UTC a 18 às 18 UTC
Nuvens fragmentadasa uma altura de 1400 ft

TAF: GVAC 180500Z 1806/1912 05016KT 9999 SCT014 TEMPO 1810/1818 BKN014

Observações e previsões do tempo de mais de 4000 aeroportos (mensagens METAR e TAF).

As estações disponíveis são os pontos amarelos e vermelhos sobre o mapa.

Mova o rato sobre o mapa para ver o nome da estação.

Depois clique no ponto para visualizar as observações e previsões meteorológicas.

Para alterar o mapa : clique nos botões verdes com uma cruz preta para aumentar o zoom; no botão verde com uma pitada de zoom; ou nas setas verdes para mapas adjacentes.


METAR-TAF: